createdAt,value
2022-10-11T00:02:41.546Z,15.08
2022-10-11T00:09:43.195Z,15.09
2022-10-11T00:16:44.779Z,14.94
2022-10-11T00:23:46.443Z,14.89
2022-10-11T00:30:48.873Z,14.87
2022-10-11T00:37:50.435Z,14.79
2022-10-11T00:44:51.974Z,14.68
2022-10-11T00:51:57.040Z,14.54
2022-10-11T00:58:58.596Z,14.38
2022-10-11T01:06:00.278Z,14.32
2022-10-11T01:13:39.550Z,14.27
2022-10-11T01:21:18.735Z,14.20
2022-10-11T01:28:44.997Z,14.03
2022-10-11T01:35:47.652Z,13.84
2022-10-11T01:42:49.221Z,13.78
2022-10-11T01:49:58.745Z,13.74
2022-10-11T01:57:15.509Z,13.67
2022-10-11T02:04:45.020Z,13.58
2022-10-11T02:11:46.553Z,13.53
2022-10-11T02:18:50.042Z,13.49
2022-10-11T02:25:51.588Z,13.46
2022-10-11T02:32:53.196Z,13.43
2022-10-11T02:40:13.019Z,13.41
2022-10-11T02:47:14.571Z,13.32
2022-10-11T02:54:16.128Z,13.26
2022-10-11T03:01:17.718Z,13.21
2022-10-11T03:08:19.286Z,13.15
2022-10-11T03:15:20.821Z,13.10
2022-10-11T03:22:22.581Z,13.06
2022-10-11T03:29:24.171Z,13.01
2022-10-11T03:36:25.771Z,12.95
2022-10-11T03:43:27.369Z,12.87
2022-10-11T03:50:28.916Z,12.79
2022-10-11T03:57:30.504Z,12.78
2022-10-11T04:04:32.058Z,12.77
2022-10-11T04:11:33.615Z,12.72
2022-10-11T04:18:35.175Z,12.70
2022-10-11T04:25:38.707Z,12.67
2022-10-11T04:32:40.245Z,12.58
2022-10-11T04:39:41.868Z,12.48
2022-10-11T04:46:43.423Z,12.47
2022-10-11T04:53:44.988Z,12.41
2022-10-11T05:00:46.544Z,12.39
2022-10-11T05:07:48.087Z,12.34
2022-10-11T05:14:49.658Z,12.32
2022-10-11T05:21:51.223Z,12.26
2022-10-11T05:28:52.880Z,12.24
2022-10-11T05:35:54.540Z,12.23
2022-10-11T05:42:56.093Z,12.19
2022-10-11T05:49:57.627Z,12.25
2022-10-11T05:56:59.176Z,12.23
2022-10-11T06:04:00.833Z,12.28
2022-10-11T06:11:22.150Z,12.26
2022-10-11T06:18:23.746Z,12.24
2022-10-11T06:25:25.387Z,12.33
2022-10-11T06:32:27.023Z,12.38
2022-10-11T06:39:28.660Z,12.42
2022-10-11T06:46:31.110Z,12.58
2022-10-11T06:53:32.653Z,12.82
2022-10-11T07:00:34.386Z,12.96
2022-10-11T07:07:35.978Z,13.05
2022-10-11T07:14:37.508Z,13.25
2022-10-11T07:22:03.632Z,13.63
2022-10-11T07:29:05.413Z,13.77
2022-10-11T07:36:08.005Z,13.93
2022-10-11T07:43:10.742Z,14.11
2022-10-11T07:50:13.071Z,14.48
2022-10-11T07:57:15.459Z,14.97
2022-10-11T08:04:17.032Z,15.31
2022-10-11T08:11:23.418Z,15.86
2022-10-11T08:18:25.007Z,16.15
2022-10-11T08:25:26.615Z,16.49
2022-10-11T08:32:29.373Z,17.03
2022-10-11T08:39:31.323Z,17.47
2022-10-11T08:46:33.392Z,17.74
2022-10-11T08:53:34.807Z,18.27
2022-10-11T09:00:38.129Z,18.69
2022-10-11T09:08:05.223Z,19.15
2022-10-11T09:15:20.895Z,19.35
2022-10-11T09:23:00.942Z,19.89
2022-10-11T09:30:04.487Z,20.44
2022-10-11T09:37:10.047Z,20.91
2022-10-11T09:44:25.679Z,21.58
2022-10-11T09:51:27.255Z,22.09
2022-10-11T09:58:33.367Z,22.44
2022-10-11T10:05:36.802Z,23.25
2022-10-11T10:12:38.408Z,23.70
2022-10-11T10:19:45.264Z,24.03
2022-10-11T10:27:16.867Z,24.36
2022-10-11T10:34:39.947Z,24.96
2022-10-11T10:41:41.564Z,24.91
2022-10-11T10:49:23.580Z,25.45
2022-10-11T10:56:18.216Z,25.78
2022-10-11T11:03:23.015Z,25.56
2022-10-11T11:10:33.660Z,25.34
2022-10-11T11:18:04.082Z,25.14
2022-10-11T11:25:33.391Z,25.71
2022-10-11T11:32:48.118Z,26.95
2022-10-11T11:39:51.769Z,27.32
2022-10-11T11:47:19.976Z,26.23
2022-10-11T11:54:41.634Z,24.55
2022-10-11T12:01:57.728Z,22.80
2022-10-11T12:09:21.480Z,22.37
2022-10-11T12:16:23.279Z,23.12
2022-10-11T12:23:30.888Z,23.97
2022-10-11T12:30:44.973Z,22.65
2022-10-11T12:37:51.102Z,22.00
2022-10-11T12:45:10.891Z,22.06
2022-10-11T12:52:36.789Z,22.21
2022-10-11T12:59:41.382Z,22.46
2022-10-11T13:06:53.702Z,22.20
2022-10-11T13:14:08.957Z,21.74
2022-10-11T13:21:39.993Z,21.33
2022-10-11T13:28:41.685Z,20.96
2022-10-11T13:35:43.270Z,20.80
2022-10-11T13:42:45.105Z,20.46
2022-10-11T13:49:50.332Z,20.24
2022-10-11T13:56:51.944Z,20.32
2022-10-11T14:04:08.076Z,20.08
2022-10-11T14:11:10.803Z,19.73
2022-10-11T14:18:42.799Z,19.50
2022-10-11T14:25:44.374Z,19.54
2022-10-11T14:32:46.427Z,19.58
2022-10-11T14:39:48.099Z,19.34
2022-10-11T14:46:50.382Z,19.22
2022-10-11T14:53:52.012Z,19.15
2022-10-11T15:00:53.604Z,18.98
2022-10-11T15:07:55.379Z,18.92
2022-10-11T15:14:56.945Z,18.85
2022-10-11T15:21:58.628Z,18.74
2022-10-11T15:29:00.211Z,18.68
2022-10-11T15:36:01.758Z,18.60
2022-10-11T15:43:03.531Z,18.50
2022-10-11T15:50:37.051Z,18.40
2022-10-11T15:57:38.623Z,18.28
2022-10-11T16:04:40.292Z,18.10
2022-10-11T16:11:41.878Z,17.96
2022-10-11T16:18:43.490Z,17.82
2022-10-11T16:25:45.072Z,17.62
2022-10-11T16:32:46.695Z,17.46
2022-10-11T16:39:48.262Z,17.30
2022-10-11T16:46:49.818Z,17.12
2022-10-11T16:53:52.297Z,16.95
2022-10-11T17:00:53.932Z,16.81
2022-10-11T17:07:55.709Z,16.70
2022-10-11T17:14:57.338Z,16.52
2022-10-11T17:21:58.936Z,16.38
2022-10-11T17:29:00.878Z,16.24
2022-10-11T17:36:02.620Z,16.10
2022-10-11T17:43:04.542Z,15.98
2022-10-11T17:50:06.533Z,15.85
2022-10-11T17:57:08.148Z,15.69
2022-10-11T18:04:16.395Z,15.54
2022-10-11T18:11:18.801Z,15.41
2022-10-11T18:18:20.441Z,15.29
2022-10-11T18:25:22.038Z,15.19
2022-10-11T18:32:23.630Z,15.06
2022-10-11T18:39:25.283Z,14.94
2022-10-11T18:46:27.215Z,14.78
2022-10-11T18:53:28.776Z,14.73
2022-10-11T19:00:40.760Z,14.63
2022-10-11T19:07:43.097Z,14.53
2022-10-11T19:14:44.757Z,14.40
2022-10-11T19:21:48.567Z,14.31
2022-10-11T19:28:58.182Z,14.19
2022-10-11T19:36:02.408Z,14.06
2022-10-11T19:43:04.012Z,13.97
2022-10-11T19:50:06.101Z,13.88
2022-10-11T19:57:09.404Z,13.80
2022-10-11T20:04:22.934Z,13.71
2022-10-11T20:11:33.112Z,13.59
2022-10-11T20:18:34.768Z,13.50
2022-10-11T20:25:36.347Z,13.41
2022-10-11T20:32:37.919Z,13.34
2022-10-11T20:39:39.717Z,13.27
2022-10-11T20:46:45.189Z,13.21
2022-10-11T20:53:46.824Z,13.13
2022-10-11T21:00:48.480Z,13.05
2022-10-11T21:07:50.272Z,12.95
2022-10-11T21:14:51.853Z,12.84
2022-10-11T21:21:53.943Z,12.76
2022-10-11T21:28:55.731Z,12.67
2022-10-11T21:35:57.521Z,12.63
2022-10-11T21:42:59.125Z,12.54
2022-10-11T21:50:00.718Z,12.48
2022-10-11T21:57:02.278Z,12.41
2022-10-11T22:04:07.512Z,12.35
2022-10-11T22:11:09.241Z,12.30
2022-10-11T22:18:10.859Z,12.22
2022-10-11T22:25:12.479Z,12.17
2022-10-11T22:32:14.025Z,12.08
2022-10-11T22:39:15.572Z,11.99
2022-10-11T22:46:17.125Z,11.91
2022-10-11T22:53:18.688Z,11.85
2022-10-11T23:00:22.765Z,11.77
2022-10-11T23:07:24.319Z,11.67
2022-10-11T23:14:25.873Z,11.62
2022-10-11T23:21:27.561Z,11.56
2022-10-11T23:28:29.220Z,11.46
2022-10-11T23:35:30.827Z,11.41
2022-10-11T23:42:32.401Z,11.38
2022-10-11T23:49:33.995Z,11.35
2022-10-11T23:56:35.546Z,11.33
